sensor_id;sensor_type;location;lat;lon;timestamp;pressure;altitude;pressure_sealevel;temperature;humidity
11692;BME280;33659;42.672;23.354;2022-10-30T00:00:18;95143.50;;;14.53;57.41
11692;BME280;33659;42.672;23.354;2022-10-30T00:02:45;95135.72;;;14.56;57.70
11692;BME280;33659;42.672;23.354;2022-10-30T00:05:12;95145.91;;;14.58;57.56
11692;BME280;33659;42.672;23.354;2022-10-30T00:07:39;95141.56;;;14.50;57.79
11692;BME280;33659;42.672;23.354;2022-10-30T00:10:06;95139.00;;;14.41;57.80
11692;BME280;33659;42.672;23.354;2022-10-30T00:12:34;95137.63;;;14.19;58.16
11692;BME280;33659;42.672;23.354;2022-10-30T00:15:02;95140.06;;;14.00;58.56
11692;BME280;33659;42.672;23.354;2022-10-30T00:17:29;95141.81;;;13.83;58.69
11692;BME280;33659;42.672;23.354;2022-10-30T00:19:55;95141.03;;;13.71;59.08
11692;BME280;33659;42.672;23.354;2022-10-30T00:22:22;95140.03;;;13.63;59.64
11692;BME280;33659;42.672;23.354;2022-10-30T00:24:49;95137.09;;;13.65;59.63
11692;BME280;33659;42.672;23.354;2022-10-30T00:27:15;95132.72;;;13.57;59.35
11692;BME280;33659;42.672;23.354;2022-10-30T00:29:43;95135.97;;;13.41;60.03
11692;BME280;33659;42.672;23.354;2022-10-30T00:32:11;95135.41;;;13.36;59.96
11692;BME280;33659;42.672;23.354;2022-10-30T00:34:37;95140.34;;;13.37;60.05
11692;BME280;33659;42.672;23.354;2022-10-30T00:37:04;95140.56;;;13.44;60.09
11692;BME280;33659;42.672;23.354;2022-10-30T00:39:31;95127.13;;;13.46;59.83
11692;BME280;33659;42.672;23.354;2022-10-30T00:41:57;95137.09;;;13.52;59.53
11692;BME280;33659;42.672;23.354;2022-10-30T00:44:40;95132.06;;;13.60;59.46
11692;BME280;33659;42.672;23.354;2022-10-30T00:47:14;95130.09;;;13.57;59.34
11692;BME280;33659;42.672;23.354;2022-10-30T00:49:50;95128.78;;;13.63;59.01
11692;BME280;33659;42.672;23.354;2022-10-30T00:52:20;95129.13;;;13.61;59.47
11692;BME280;33659;42.672;23.354;2022-10-30T00:54:48;95136.88;;;13.70;59.37
11692;BME280;33659;42.672;23.354;2022-10-30T00:57:17;95127.69;;;13.76;59.23
11692;BME280;33659;42.672;23.354;2022-10-30T00:59:44;95123.53;;;13.75;59.33
11692;BME280;33659;42.672;23.354;2022-10-30T01:02:12;95123.53;;;13.75;59.24
11692;BME280;33659;42.672;23.354;2022-10-30T01:04:40;95119.25;;;13.70;59.42
11692;BME280;33659;42.672;23.354;2022-10-30T01:07:10;95112.81;;;13.68;59.13
11692;BME280;33659;42.672;23.354;2022-10-30T01:09:37;95112.63;;;13.73;59.04
11692;BME280;33659;42.672;23.354;2022-10-30T01:12:05;95106.47;;;13.69;59.17
11692;BME280;33659;42.672;23.354;2022-10-30T01:14:33;95105.16;;;13.63;59.19
11692;BME280;33659;42.672;23.354;2022-10-30T01:17:13;95096.84;;;13.61;59.29
11692;BME280;33659;42.672;23.354;2022-10-30T01:19:49;95093.88;;;13.50;59.44
11692;BME280;33659;42.672;23.354;2022-10-30T01:22:33;95093.34;;;13.44;59.69
11692;BME280;33659;42.672;23.354;2022-10-30T01:25:13;95095.09;;;13.28;60.05
11692;BME280;33659;42.672;23.354;2022-10-30T01:27:53;95094.53;;;12.89;60.95
11692;BME280;33659;42.672;23.354;2022-10-30T01:30:32;95091.81;;;12.65;61.98
11692;BME280;33659;42.672;23.354;2022-10-30T01:33:10;95085.19;;;12.46;63.04
11692;BME280;33659;42.672;23.354;2022-10-30T01:35:48;95095.41;;;12.39;62.90
11692;BME280;33659;42.672;23.354;2022-10-30T01:38:20;95096.09;;;12.48;63.13
11692;BME280;33659;42.672;23.354;2022-10-30T01:40:49;95095.16;;;12.53;62.94
11692;BME280;33659;42.672;23.354;2022-10-30T01:43:16;95095.53;;;12.64;62.74
11692;BME280;33659;42.672;23.354;2022-10-30T01:46:03;95083.88;;;12.73;62.17
11692;BME280;33659;42.672;23.354;2022-10-30T01:48:49;95081.63;;;12.84;62.17
11692;BME280;33659;42.672;23.354;2022-10-30T01:51:30;95079.47;;;12.98;62.01
11692;BME280;33659;42.672;23.354;2022-10-30T01:54:07;95082.31;;;13.06;61.94
11692;BME280;33659;42.672;23.354;2022-10-30T01:56:43;95088.31;;;13.06;61.77
11692;BME280;33659;42.672;23.354;2022-10-30T01:59:16;95082.69;;;13.16;61.43
11692;BME280;33659;42.672;23.354;2022-10-30T02:01:47;95076.16;;;13.22;61.07
11692;BME280;33659;42.672;23.354;2022-10-30T02:04:15;95075.81;;;13.24;61.13
11692;BME280;33659;42.672;23.354;2022-10-30T02:06:44;95076.38;;;13.30;60.93
11692;BME280;33659;42.672;23.354;2022-10-30T02:09:10;95075.72;;;13.20;61.12
11692;BME280;33659;42.672;23.354;2022-10-30T02:11:40;95076.53;;;13.12;61.16
11692;BME280;33659;42.672;23.354;2022-10-30T02:14:08;95079.28;;;13.16;61.37
11692;BME280;33659;42.672;23.354;2022-10-30T02:16:41;95084.97;;;13.18;61.58
11692;BME280;33659;42.672;23.354;2022-10-30T02:19:10;95071.69;;;13.23;61.60
11692;BME280;33659;42.672;23.354;2022-10-30T02:21:38;95072.44;;;13.23;61.58
11692;BME280;33659;42.672;23.354;2022-10-30T02:24:06;95072.00;;;13.21;61.66
11692;BME280;33659;42.672;23.354;2022-10-30T02:26:32;95068.09;;;13.27;61.37
11692;BME280;33659;42.672;23.354;2022-10-30T02:28:59;95070.38;;;13.29;61.25
11692;BME280;33659;42.672;23.354;2022-10-30T02:31:26;95068.19;;;13.31;61.38
11692;BME280;33659;42.672;23.354;2022-10-30T02:33:53;95073.63;;;13.26;61.50
11692;BME280;33659;42.672;23.354;2022-10-30T02:36:19;95072.53;;;13.15;60.78
11692;BME280;33659;42.672;23.354;2022-10-30T02:38:47;95073.31;;;12.82;61.67
11692;BME280;33659;42.672;23.354;2022-10-30T02:41:14;95071.47;;;12.50;63.19
11692;BME280;33659;42.672;23.354;2022-10-30T02:43:40;95070.31;;;12.38;63.95
11692;BME280;33659;42.672;23.354;2022-10-30T02:46:07;95077.00;;;12.27;64.12
11692;BME280;33659;42.672;23.354;2022-10-30T02:48:34;95069.16;;;12.06;65.14
11692;BME280;33659;42.672;23.354;2022-10-30T02:51:01;95073.47;;;11.81;65.96
11692;BME280;33659;42.672;23.354;2022-10-30T02:53:28;95071.94;;;11.72;66.33
11692;BME280;33659;42.672;23.354;2022-10-30T02:56:02;95074.38;;;11.77;66.23
11692;BME280;33659;42.672;23.354;2022-10-30T02:58:28;95077.44;;;11.87;65.65
11692;BME280;33659;42.672;23.354;2022-10-30T03:00:55;95077.25;;;11.92;65.28
11692;BME280;33659;42.672;23.354;2022-10-30T03:03:22;95078.41;;;12.04;65.25
11692;BME280;33659;42.672;23.354;2022-10-30T03:05:48;95081.78;;;12.04;64.85
11692;BME280;33659;42.672;23.354;2022-10-30T03:08:15;95079.63;;;12.06;64.77
11692;BME280;33659;42.672;23.354;2022-10-30T03:10:42;95079.75;;;12.10;64.61
11692;BME280;33659;42.672;23.354;2022-10-30T03:13:10;95091.88;;;12.14;64.78
11692;BME280;33659;42.672;23.354;2022-10-30T03:15:36;95088.44;;;12.23;65.39
11692;BME280;33659;42.672;23.354;2022-10-30T03:18:03;95099.16;;;12.30;64.41
11692;BME280;33659;42.672;23.354;2022-10-30T03:20:30;95093.13;;;12.38;63.46
11692;BME280;33659;42.672;23.354;2022-10-30T03:22:56;95093.47;;;12.48;62.95
11692;BME280;33659;42.672;23.354;2022-10-30T03:25:23;95094.63;;;12.60;62.62
11692;BME280;33659;42.672;23.354;2022-10-30T03:27:51;95087.34;;;12.65;62.97
11692;BME280;33659;42.672;23.354;2022-10-30T03:30:19;95085.03;;;12.64;63.96
11692;BME280;33659;42.672;23.354;2022-10-30T03:32:46;95088.44;;;12.64;64.10
11692;BME280;33659;42.672;23.354;2022-10-30T03:35:12;95082.63;;;12.59;63.09
11692;BME280;33659;42.672;23.354;2022-10-30T03:37:39;95082.31;;;12.39;63.47
11692;BME280;33659;42.672;23.354;2022-10-30T03:40:07;95090.94;;;12.19;63.76
11692;BME280;33659;42.672;23.354;2022-10-30T03:42:33;95088.69;;;12.09;64.07
11692;BME280;33659;42.672;23.354;2022-10-30T03:45:05;95081.16;;;12.07;64.03
11692;BME280;33659;42.672;23.354;2022-10-30T03:47:34;95087.31;;;12.11;64.57
11692;BME280;33659;42.672;23.354;2022-10-30T03:50:00;95078.47;;;12.16;64.52
11692;BME280;33659;42.672;23.354;2022-10-30T03:52:27;95080.16;;;12.20;64.54
11692;BME280;33659;42.672;23.354;2022-10-30T03:54:53;95074.06;;;12.29;64.26
11692;BME280;33659;42.672;23.354;2022-10-30T03:57:20;95079.25;;;12.37;64.10
11692;BME280;33659;42.672;23.354;2022-10-30T03:59:47;95075.53;;;12.38;64.20
11692;BME280;33659;42.672;23.354;2022-10-30T04:02:13;95075.53;;;12.38;63.85
11692;BME280;33659;42.672;23.354;2022-10-30T04:04:41;95075.22;;;12.40;63.42
11692;BME280;33659;42.672;23.354;2022-10-30T04:07:08;95063.72;;;12.32;63.53
11692;BME280;33659;42.672;23.354;2022-10-30T04:09:35;95066.53;;;12.27;63.74
11692;BME280;33659;42.672;23.354;2022-10-30T04:12:01;95066.44;;;12.24;64.45
11692;BME280;33659;42.672;23.354;2022-10-30T04:14:28;95065.84;;;12.18;64.22
11692;BME280;33659;42.672;23.354;2022-10-30T04:16:55;95072.72;;;12.23;63.53
11692;BME280;33659;42.672;23.354;2022-10-30T04:19:21;95072.88;;;12.26;63.33
11692;BME280;33659;42.672;23.354;2022-10-30T04:21:49;95070.06;;;12.31;62.93
11692;BME280;33659;42.672;23.354;2022-10-30T04:24:16;95064.50;;;12.33;62.91
11692;BME280;33659;42.672;23.354;2022-10-30T04:26:43;95073.13;;;12.33;62.97
11692;BME280;33659;42.672;23.354;2022-10-30T04:29:10;95065.91;;;12.30;63.01
11692;BME280;33659;42.672;23.354;2022-10-30T04:31:36;95058.88;;;12.22;63.01
11692;BME280;33659;42.672;23.354;2022-10-30T04:34:03;95066.53;;;12.27;62.88
11692;BME280;33659;42.672;23.354;2022-10-30T04:36:29;95059.88;;;12.30;62.77
11692;BME280;33659;42.672;23.354;2022-10-30T04:38:59;95066.97;;;12.29;62.72
11692;BME280;33659;42.672;23.354;2022-10-30T04:41:27;95070.06;;;12.31;62.41
11692;BME280;33659;42.672;23.354;2022-10-30T04:43:53;95077.00;;;12.27;62.48
11692;BME280;33659;42.672;23.354;2022-10-30T04:46:20;95081.16;;;12.28;62.52
11692;BME280;33659;42.672;23.354;2022-10-30T04:48:47;95086.41;;;12.28;62.38
11692;BME280;33659;42.672;23.354;2022-10-30T04:51:14;95084.75;;;12.24;62.32
11692;BME280;33659;42.672;23.354;2022-10-30T04:53:40;95078.03;;;12.14;62.54
11692;BME280;33659;42.672;23.354;2022-10-30T04:56:09;95076.53;;;12.04;62.55
11692;BME280;33659;42.672;23.354;2022-10-30T04:58:36;95084.91;;;11.98;62.41
11692;BME280;33659;42.672;23.354;2022-10-30T05:01:04;95083.59;;;11.91;62.83
11692;BME280;33659;42.672;23.354;2022-10-30T05:03:31;95087.13;;;11.87;62.71
11692;BME280;33659;42.672;23.354;2022-10-30T05:06:00;95086.25;;;11.74;63.03
11692;BME280;33659;42.672;23.354;2022-10-30T05:08:27;95084.72;;;11.73;63.26
11692;BME280;33659;42.672;23.354;2022-10-30T05:10:55;95089.50;;;11.71;62.50
11692;BME280;33659;42.672;23.354;2022-10-30T05:13:23;95092.47;;;11.61;62.50
11692;BME280;33659;42.672;23.354;2022-10-30T05:15:50;95097.34;;;11.42;63.21
11692;BME280;33659;42.672;23.354;2022-10-30T05:18:19;95093.97;;;11.32;63.38
11692;BME280;33659;42.672;23.354;2022-10-30T05:20:45;95099.97;;;11.33;63.13
11692;BME280;33659;42.672;23.354;2022-10-30T05:23:12;95094.88;;;11.36;63.02
11692;BME280;33659;42.672;23.354;2022-10-30T05:25:39;95094.44;;;11.34;63.11
11692;BME280;33659;42.672;23.354;2022-10-30T05:28:05;95093.41;;;11.18;63.34
11692;BME280;33659;42.672;23.354;2022-10-30T05:30:34;95090.81;;;11.09;63.80
11692;BME280;33659;42.672;23.354;2022-10-30T05:33:02;95098.50;;;11.06;64.26
11692;BME280;33659;42.672;23.354;2022-10-30T05:35:30;95092.53;;;10.97;64.30
11692;BME280;33659;42.672;23.354;2022-10-30T05:37:57;95100.81;;;11.07;64.53
11692;BME280;33659;42.672;23.354;2022-10-30T05:40:24;95103.09;;;11.18;64.05
11692;BME280;33659;42.672;23.354;2022-10-30T05:42:50;95099.50;;;11.31;63.47
11692;BME280;33659;42.672;23.354;2022-10-30T05:45:17;95100.28;;;11.40;63.31
11692;BME280;33659;42.672;23.354;2022-10-30T05:47:53;95104.53;;;11.53;62.83
11692;BME280;33659;42.672;23.354;2022-10-30T05:50:20;95099.56;;;11.60;62.59
11692;BME280;33659;42.672;23.354;2022-10-30T05:52:47;95097.97;;;11.68;62.24
11692;BME280;33659;42.672;23.354;2022-10-30T05:55:14;95097.38;;;11.62;62.30
11692;BME280;33659;42.672;23.354;2022-10-30T05:57:40;95103.38;;;11.33;63.36
11692;BME280;33659;42.672;23.354;2022-10-30T06:00:08;95091.44;;;11.06;64.10
11692;BME280;33659;42.672;23.354;2022-10-30T06:02:35;95100.34;;;11.05;64.19
11692;BME280;33659;42.672;23.354;2022-10-30T06:05:04;95094.16;;;11.19;63.88
11692;BME280;33659;42.672;23.354;2022-10-30T06:07:31;95093.53;;;11.30;64.00
11692;BME280;33659;42.672;23.354;2022-10-30T06:09:57;95090.69;;;11.53;63.41
11692;BME280;33659;42.672;23.354;2022-10-30T06:12:24;95093.34;;;11.74;62.63
11692;BME280;33659;42.672;23.354;2022-10-30T06:14:51;95100.94;;;11.96;62.13
11692;BME280;33659;42.672;23.354;2022-10-30T06:17:17;95096.81;;;12.16;61.29
11692;BME280;33659;42.672;23.354;2022-10-30T06:19:44;95100.06;;;12.34;60.55
11692;BME280;33659;42.672;23.354;2022-10-30T06:22:12;95088.66;;;12.38;60.25
11692;BME280;33659;42.672;23.354;2022-10-30T06:24:39;95089.78;;;12.50;60.28
11692;BME280;33659;42.672;23.354;2022-10-30T06:27:05;95095.34;;;12.69;59.92
11692;BME280;33659;42.672;23.354;2022-10-30T06:29:32;95100.16;;;12.79;59.52
11692;BME280;33659;42.672;23.354;2022-10-30T06:31:59;95094.06;;;12.87;58.93
11692;BME280;33659;42.672;23.354;2022-10-30T06:34:25;95101.94;;;12.87;59.00
11692;BME280;33659;42.672;23.354;2022-10-30T06:36:52;95103.72;;;12.95;58.80
11692;BME280;33659;42.672;23.354;2022-10-30T06:39:20;95108.88;;;13.04;58.58
11692;BME280;33659;42.672;23.354;2022-10-30T06:41:47;95103.09;;;13.11;58.48
11692;BME280;33659;42.672;23.354;2022-10-30T06:44:13;95096.13;;;13.15;58.53
11692;BME280;33659;42.672;23.354;2022-10-30T06:46:40;95106.09;;;13.21;58.33
11692;BME280;33659;42.672;23.354;2022-10-30T06:49:07;95101.19;;;13.32;58.19
11692;BME280;33659;42.672;23.354;2022-10-30T06:51:33;95108.22;;;13.40;57.94
11692;BME280;33659;42.672;23.354;2022-10-30T06:54:00;95112.69;;;13.52;57.69
11692;BME280;33659;42.672;23.354;2022-10-30T06:56:28;95110.75;;;13.61;57.70
11692;BME280;33659;42.672;23.354;2022-10-30T06:58:55;95118.06;;;13.68;57.35
11692;BME280;33659;42.672;23.354;2022-10-30T07:01:21;95107.56;;;13.68;57.45
11692;BME280;33659;42.672;23.354;2022-10-30T07:03:48;95108.47;;;13.72;57.69
11692;BME280;33659;42.672;23.354;2022-10-30T07:06:15;95109.44;;;13.79;57.69
11692;BME280;33659;42.672;23.354;2022-10-30T07:08:41;95112.63;;;13.85;58.15
11692;BME280;33659;42.672;23.354;2022-10-30T07:11:08;95119.19;;;13.91;57.73
11692;BME280;33659;42.672;23.354;2022-10-30T07:13:36;95123.88;;;13.98;57.83
11692;BME280;33659;42.672;23.354;2022-10-30T07:16:03;95118.72;;;14.01;57.76
11692;BME280;33659;42.672;23.354;2022-10-30T07:18:29;95114.34;;;14.05;58.54
11692;BME280;33659;42.672;23.354;2022-10-30T07:20:56;95098.25;;;14.07;58.44
11692;BME280;33659;42.672;23.354;2022-10-30T07:23:23;95099.88;;;14.12;58.44
11692;BME280;33659;42.672;23.354;2022-10-30T07:25:49;95102.06;;;14.09;58.30
11692;BME280;33659;42.672;23.354;2022-10-30T07:28:16;95104.47;;;14.15;58.40
11692;BME280;33659;42.672;23.354;2022-10-30T07:30:44;95095.59;;;14.19;58.61
11692;BME280;33659;42.672;23.354;2022-10-30T07:33:11;95095.38;;;14.24;58.85
11692;BME280;33659;42.672;23.354;2022-10-30T07:35:37;95086.94;;;14.31;58.87
11692;BME280;33659;42.672;23.354;2022-10-30T07:38:06;95086.19;;;14.30;58.49
11692;BME280;33659;42.672;23.354;2022-10-30T07:40:33;95098.19;;;14.44;58.48
11692;BME280;33659;42.672;23.354;2022-10-30T07:43:00;95092.03;;;14.52;58.45
11692;BME280;33659;42.672;23.354;2022-10-30T07:45:27;95094.34;;;14.53;58.38
11692;BME280;33659;42.672;23.354;2022-10-30T07:47:55;95090.59;;;14.54;58.73
11692;BME280;33659;42.672;23.354;2022-10-30T07:50:23;95089.59;;;14.59;58.80
11692;BME280;33659;42.672;23.354;2022-10-30T07:52:49;95089.06;;;14.53;58.44
11692;BME280;33659;42.672;23.354;2022-10-30T07:55:16;95082.72;;;14.42;58.59
11692;BME280;33659;42.672;23.354;2022-10-30T07:57:43;95071.03;;;14.40;59.01
11692;BME280;33659;42.672;23.354;2022-10-30T08:00:11;95069.84;;;14.37;59.35
11692;BME280;33659;42.672;23.354;2022-10-30T08:02:39;95068.75;;;14.38;59.35
11692;BME280;33659;42.672;23.354;2022-10-30T08:05:08;95074.63;;;14.47;59.33
11692;BME280;33659;42.672;23.354;2022-10-30T08:07:37;95068.16;;;14.57;59.10
11692;BME280;33659;42.672;23.354;2022-10-30T08:10:04;95068.38;;;14.52;59.37
11692;BME280;33659;42.672;23.354;2022-10-30T08:12:32;95064.22;;;14.51;59.39
11692;BME280;33659;42.672;23.354;2022-10-30T08:14:59;95059.06;;;14.54;59.60
11692;BME280;33659;42.672;23.354;2022-10-30T08:17:26;95057.59;;;14.69;59.28
11692;BME280;33659;42.672;23.354;2022-10-30T08:19:53;95053.69;;;14.79;59.06
11692;BME280;33659;42.672;23.354;2022-10-30T08:22:23;95047.97;;;14.89;58.94
11692;BME280;33659;42.672;23.354;2022-10-30T08:24:50;95053.16;;;15.01;58.65
11692;BME280;33659;42.672;23.354;2022-10-30T08:27:16;95050.19;;;15.18;58.19
11692;BME280;33659;42.672;23.354;2022-10-30T08:29:43;95048.75;;;15.21;57.99
11692;BME280;33659;42.672;23.354;2022-10-30T08:32:10;95051.13;;;15.26;58.48
11692;BME280;33659;42.672;23.354;2022-10-30T08:34:36;95049.09;;;15.35;59.06
11692;BME280;33659;42.672;23.354;2022-10-30T08:37:03;95054.16;;;15.44;58.67
11692;BME280;33659;42.672;23.354;2022-10-30T08:39:31;95055.88;;;15.52;58.04
11692;BME280;33659;42.672;23.354;2022-10-30T08:41:58;95044.66;;;15.55;58.22
11692;BME280;33659;42.672;23.354;2022-10-30T08:44:25;95051.47;;;15.72;57.82
11692;BME280;33659;42.672;23.354;2022-10-30T08:46:51;95047.41;;;15.94;57.30
11692;BME280;33659;42.672;23.354;2022-10-30T08:49:18;95045.84;;;16.09;56.90
11692;BME280;33659;42.672;23.354;2022-10-30T08:51:45;95051.06;;;16.24;56.44
11692;BME280;33659;42.672;23.354;2022-10-30T08:54:11;95048.00;;;16.42;56.13
11692;BME280;33659;42.672;23.354;2022-10-30T08:56:39;95045.78;;;16.63;55.52
11692;BME280;33659;42.672;23.354;2022-10-30T08:59:06;95042.72;;;16.81;55.17
11692;BME280;33659;42.672;23.354;2022-10-30T09:01:33;95037.72;;;16.95;54.75
11692;BME280;33659;42.672;23.354;2022-10-30T09:04:01;95033.56;;;17.17;54.45
11692;BME280;33659;42.672;23.354;2022-10-30T09:06:29;95023.75;;;17.40;54.05
11692;BME280;33659;42.672;23.354;2022-10-30T09:08:55;95029.28;;;17.58;53.18
11692;BME280;33659;42.672;23.354;2022-10-30T09:11:22;95028.03;;;17.71;52.93
11692;BME280;33659;42.672;23.354;2022-10-30T09:13:50;95026.38;;;17.90;52.34
11692;BME280;33659;42.672;23.354;2022-10-30T09:16:16;95026.13;;;17.98;52.22
11692;BME280;33659;42.672;23.354;2022-10-30T09:18:43;95029.41;;;18.18;51.85
11692;BME280;33659;42.672;23.354;2022-10-30T09:21:10;95026.56;;;18.34;51.38
11692;BME280;33659;42.672;23.354;2022-10-30T09:23:36;95011.53;;;18.41;51.09
11692;BME280;33659;42.672;23.354;2022-10-30T09:26:03;95016.66;;;18.61;50.78
11692;BME280;33659;42.672;23.354;2022-10-30T09:28:30;95012.69;;;18.74;50.70
11692;BME280;33659;42.672;23.354;2022-10-30T09:30:59;95021.19;;;18.94;50.22
11692;BME280;33659;42.672;23.354;2022-10-30T09:33:26;95013.78;;;19.14;50.02
11692;BME280;33659;42.672;23.354;2022-10-30T09:35:53;95010.88;;;19.30;49.55
11692;BME280;33659;42.672;23.354;2022-10-30T09:38:19;95013.28;;;19.45;48.98
11692;BME280;33659;42.672;23.354;2022-10-30T09:41:03;95005.84;;;19.62;48.41
11692;BME280;33659;42.672;23.354;2022-10-30T09:43:42;94991.47;;;19.59;48.07
11692;BME280;33659;42.672;23.354;2022-10-30T09:46:31;94993.34;;;19.59;48.14
11692;BME280;33659;42.672;23.354;2022-10-30T09:49:18;94989.25;;;19.72;47.81
11692;BME280;33659;42.672;23.354;2022-10-30T09:52:02;94980.25;;;19.87;47.60
11692;BME280;33659;42.672;23.354;2022-10-30T09:54:45;94979.91;;;19.92;47.27
11692;BME280;33659;42.672;23.354;2022-10-30T09:57:21;94986.72;;;19.93;46.98
11692;BME280;33659;42.672;23.354;2022-10-30T09:59:58;94979.97;;;20.07;47.19
11692;BME280;33659;42.672;23.354;2022-10-30T10:02:34;94966.38;;;20.26;46.38
11692;BME280;33659;42.672;23.354;2022-10-30T10:05:06;94969.50;;;20.46;45.83
11692;BME280;33659;42.672;23.354;2022-10-30T10:07:40;94966.81;;;20.35;45.44
11692;BME280;33659;42.672;23.354;2022-10-30T10:10:13;94967.16;;;20.30;45.52
11692;BME280;33659;42.672;23.354;2022-10-30T10:12:44;94957.38;;;20.45;45.49
11692;BME280;33659;42.672;23.354;2022-10-30T10:15:17;94952.50;;;20.72;45.47
11692;BME280;33659;42.672;23.354;2022-10-30T10:17:47;94944.94;;;21.02;44.31
11692;BME280;33659;42.672;23.354;2022-10-30T10:20:16;94939.63;;;21.17;44.24
11692;BME280;33659;42.672;23.354;2022-10-30T10:22:49;94932.81;;;21.30;44.07
11692;BME280;33659;42.672;23.354;2022-10-30T10:25:18;94927.88;;;21.32;43.81
11692;BME280;33659;42.672;23.354;2022-10-30T10:27:55;94928.19;;;21.55;43.59
11692;BME280;33659;42.672;23.354;2022-10-30T10:30:30;94919.44;;;21.69;43.23
11692;BME280;33659;42.672;23.354;2022-10-30T10:36:05;94916.38;;;21.78;42.59
11692;BME280;33659;42.672;23.354;2022-10-30T10:38:44;94911.78;;;21.82;42.46
11692;BME280;33659;42.672;23.354;2022-10-30T10:41:20;94917.47;;;21.91;41.98
11692;BME280;33659;42.672;23.354;2022-10-30T10:43:59;94912.13;;;21.98;42.30
11692;BME280;33659;42.672;23.354;2022-10-30T10:46:38;94910.53;;;22.19;41.96
11692;BME280;33659;42.672;23.354;2022-10-30T10:49:25;94894.53;;;22.26;41.59
11692;BME280;33659;42.672;23.354;2022-10-30T10:51:59;94902.25;;;21.95;41.89
11692;BME280;33659;42.672;23.354;2022-10-30T10:54:30;94896.50;;;22.07;41.90
11692;BME280;33659;42.672;23.354;2022-10-30T10:56:58;94893.78;;;22.25;41.15
11692;BME280;33659;42.672;23.354;2022-10-30T10:59:30;94882.97;;;22.50;40.65
11692;BME280;33659;42.672;23.354;2022-10-30T11:02:14;94882.88;;;22.64;40.11
11692;BME280;33659;42.672;23.354;2022-10-30T11:04:51;94874.41;;;22.80;39.17
11692;BME280;33659;42.672;23.354;2022-10-30T11:07:21;94879.09;;;22.58;38.72
11692;BME280;33659;42.672;23.354;2022-10-30T11:09:50;94861.94;;;22.66;39.00
11692;BME280;33659;42.672;23.354;2022-10-30T11:12:19;94863.03;;;22.73;38.72
11692;BME280;33659;42.672;23.354;2022-10-30T11:14:48;94871.34;;;22.78;39.11
11692;BME280;33659;42.672;23.354;2022-10-30T11:17:20;94863.66;;;22.91;38.56
11692;BME280;33659;42.672;23.354;2022-10-30T11:19:50;94850.28;;;22.98;38.06
11692;BME280;33659;42.672;23.354;2022-10-30T11:22:23;94851.88;;;23.30;37.37
11692;BME280;33659;42.672;23.354;2022-10-30T11:24:51;94855.41;;;23.57;37.01
11692;BME280;33659;42.672;23.354;2022-10-30T11:27:24;94843.34;;;23.80;36.65
11692;BME280;33659;42.672;23.354;2022-10-30T11:29:54;94842.31;;;24.00;36.20
11692;BME280;33659;42.672;23.354;2022-10-30T11:32:26;94838.59;;;24.21;36.52
11692;BME280;33659;42.672;23.354;2022-10-30T11:35:01;94838.38;;;24.39;35.70
11692;BME280;33659;42.672;23.354;2022-10-30T11:37:30;94833.78;;;24.40;34.95
11692;BME280;33659;42.672;23.354;2022-10-30T11:40:01;94836.53;;;24.59;34.54
11692;BME280;33659;42.672;23.354;2022-10-30T11:42:29;94829.50;;;24.69;34.54
11692;BME280;33659;42.672;23.354;2022-10-30T11:44:56;94831.47;;;24.89;34.45
11692;BME280;33659;42.672;23.354;2022-10-30T11:47:26;94824.97;;;24.90;34.32
11692;BME280;33659;42.672;23.354;2022-10-30T11:49:59;94818.69;;;25.00;34.08
11692;BME280;33659;42.672;23.354;2022-10-30T11:52:27;94820.19;;;25.24;34.03
11692;BME280;33659;42.672;23.354;2022-10-30T11:54:56;94818.16;;;25.32;33.41
11692;BME280;33659;42.672;23.354;2022-10-30T11:57:31;94819.63;;;25.13;33.22
11692;BME280;33659;42.672;23.354;2022-10-30T11:59:58;94811.50;;;25.20;33.28
11692;BME280;33659;42.672;23.354;2022-10-30T12:02:26;94811.97;;;25.35;32.91
11692;BME280;33659;42.672;23.354;2022-10-30T12:04:54;94802.91;;;25.49;32.53
11692;BME280;33659;42.672;23.354;2022-10-30T12:07:26;94809.69;;;25.53;32.31
11692;BME280;33659;42.672;23.354;2022-10-30T12:09:55;94803.94;;;25.55;32.28
11692;BME280;33659;42.672;23.354;2022-10-30T12:12:27;94804.00;;;25.71;31.94
11692;BME280;33659;42.672;23.354;2022-10-30T12:15:07;94809.34;;;25.71;31.87
11692;BME280;33659;42.672;23.354;2022-10-30T12:17:36;94801.31;;;25.91;31.60
11692;BME280;33659;42.672;23.354;2022-10-30T12:20:04;94803.78;;;26.18;31.56
11692;BME280;33659;42.672;23.354;2022-10-30T12:22:33;94798.56;;;26.47;30.93
11692;BME280;33659;42.672;23.354;2022-10-30T12:25:03;94794.25;;;26.82;30.18
11692;BME280;33659;42.672;23.354;2022-10-30T12:27:33;94786.41;;;27.04;29.98
11692;BME280;33659;42.672;23.354;2022-10-30T12:30:05;94785.31;;;27.18;29.60
11692;BME280;33659;42.672;23.354;2022-10-30T12:32:38;94779.03;;;27.50;29.48
11692;BME280;33659;42.672;23.354;2022-10-30T12:35:16;94780.44;;;27.96;28.34
11692;BME280;33659;42.672;23.354;2022-10-30T12:37:48;94776.72;;;28.67;27.98
11692;BME280;33659;42.672;23.354;2022-10-30T12:40:20;94768.56;;;29.05;27.15
11692;BME280;33659;42.672;23.354;2022-10-30T12:42:54;94775.38;;;29.19;27.00
11692;BME280;33659;42.672;23.354;2022-10-30T12:45:26;94769.09;;;29.56;26.61
11692;BME280;33659;42.672;23.354;2022-10-30T12:47:58;94773.53;;;30.12;26.14
11692;BME280;33659;42.672;23.354;2022-10-30T12:50:31;94775.47;;;30.61;25.66
11692;BME280;33659;42.672;23.354;2022-10-30T12:53:06;94761.53;;;30.63;25.37
11692;BME280;33659;42.672;23.354;2022-10-30T12:55:39;94763.91;;;30.52;25.38
11692;BME280;33659;42.672;23.354;2022-10-30T12:58:14;94763.22;;;30.97;24.95
11692;BME280;33659;42.672;23.354;2022-10-30T13:00:51;94769.66;;;31.27;24.91
11692;BME280;33659;42.672;23.354;2022-10-30T13:03:27;94766.34;;;31.23;25.08